Airfield :
LOGIN :

Register | Disclaimer

   EN    FR    IT 

 










Legend :    VFR   Marginal VFR   IFR   Intensive IFR   Very Intensive IFR
Visi :
Ceiling :
>= 8 km
>= 3000ft
5 to 8 km
1000 to 3000 ft
1500m to 5 km
500 to 1000 ft
800 to 1500m
200 to 500 ft
< 800m
< 200 ft
Symbols :   Thunderstorms  Fog  Heavy snow  Heavy precipitations  Wind > 20 kt
SIGMETs :     Misc.  Thunderstorms  Icing  Turbulence  Mountain Waves  Volcanic Ashes







- Airport Elevation : 327 ft
- IATA code : BHX
- Download approach charts


EGBB - Birmingham

CURRENT METAR :
  • 181020Z 27006KT 240V330 9999 FEW025 BKN032 18/12 Q1009

EXPIRED METARs :
  • 180950Z 31008KT 9999 SCT028 BKN033 17/12 Q1009
  • 180920Z 31006KT 9999 FEW028 OVC045 16/12 Q1009
  • 180850Z 28004KT 240V320 9999 BKN038 15/12 Q1009
  • 180820Z 29004KT 9999 FEW006 BKN025 14/13 Q1009
  • 180750Z 31009KT 9999 SCT009 BKN015 14/13 Q1009 REDZ

TAF AMD TAF EGBB
Valid from the 18 at 07:00 until the 19 at 06:00 UTC


180742Z 1807/1906 28010KT 4000 DZ SCT005 BKN009
BECMG 1807/1809 9999 NSW SCT020
BECMG 1821/1824 21005KT
ATIS : +44 121 780 0910
No reported NOTAMs for that airfield.



MET'MAP, your aeronautical weather chart ! - Copyright ORBIFLY December 2007 - Disclaimer

ORBIFLY MET'MAP TEAM :

Programming & Development : Alexandra Zaïnal
Concept & Development : Baudouin d'Aumeries
Co-Development & Prog : Marc-Olivier Méhu
Technical & hardware support : Manuel Goepfert

Contact : metmap@orbifly.com




SOURCES & CREDITS :

   NOAA